sensor_id;sensor_type;location;lat;lon;timestamp;temperature;humidity
3994;DHT22;2011;48.238;13.948;2023-08-17T00:01:09;21.90;99.90
3994;DHT22;2011;48.238;13.948;2023-08-17T00:03:36;21.90;99.90
3994;DHT22;2011;48.238;13.948;2023-08-17T00:06:03;21.90;99.90
3994;DHT22;2011;48.238;13.948;2023-08-17T00:08:30;21.90;99.90
3994;DHT22;2011;48.238;13.948;2023-08-17T00:10:57;21.80;99.90
3994;DHT22;2011;48.238;13.948;2023-08-17T00:13:25;21.80;99.90
3994;DHT22;2011;48.238;13.948;2023-08-17T00:15:52;21.70;99.90
3994;DHT22;2011;48.238;13.948;2023-08-17T00:18:19;21.60;99.90
3994;DHT22;2011;48.238;13.948;2023-08-17T00:20:46;21.60;99.90
3994;DHT22;2011;48.238;13.948;2023-08-17T00:23:14;21.60;99.90
3994;DHT22;2011;48.238;13.948;2023-08-17T00:25:41;21.60;99.90
3994;DHT22;2011;48.238;13.948;2023-08-17T00:28:08;21.60;99.90
3994;DHT22;2011;48.238;13.948;2023-08-17T00:30:37;21.60;99.90
3994;DHT22;2011;48.238;13.948;2023-08-17T00:33:04;21.60;99.90
3994;DHT22;2011;48.238;13.948;2023-08-17T00:35:31;21.50;99.90
3994;DHT22;2011;48.238;13.948;2023-08-17T00:37:59;21.40;99.90
3994;DHT22;2011;48.238;13.948;2023-08-17T00:40:26;21.30;99.90
3994;DHT22;2011;48.238;13.948;2023-08-17T00:42:53;21.30;99.90
3994;DHT22;2011;48.238;13.948;2023-08-17T00:45:22;21.20;99.90
3994;DHT22;2011;48.238;13.948;2023-08-17T00:47:50;21.20;99.90
3994;DHT22;2011;48.238;13.948;2023-08-17T00:50:17;21.20;99.90
3994;DHT22;2011;48.238;13.948;2023-08-17T00:52:44;21.20;99.90
3994;DHT22;2011;48.238;13.948;2023-08-17T00:55:12;21.20;99.90
3994;DHT22;2011;48.238;13.948;2023-08-17T00:57:39;21.20;99.90
3994;DHT22;2011;48.238;13.948;2023-08-17T01:00:09;21.20;99.90
3994;DHT22;2011;48.238;13.948;2023-08-17T01:02:37;21.20;99.90
3994;DHT22;2011;48.238;13.948;2023-08-17T01:05:06;21.10;99.90
3994;DHT22;2011;48.238;13.948;2023-08-17T01:07:33;21.10;99.90
3994;DHT22;2011;48.238;13.948;2023-08-17T01:10:02;21.00;99.90
3994;DHT22;2011;48.238;13.948;2023-08-17T01:12:31;21.00;99.90
3994;DHT22;2011;48.238;13.948;2023-08-17T01:15:03;21.00;99.90
3994;DHT22;2011;48.238;13.948;2023-08-17T01:17:36;20.90;99.90
3994;DHT22;2011;48.238;13.948;2023-08-17T01:20:07;20.90;99.90
3994;DHT22;2011;48.238;13.948;2023-08-17T01:22:35;20.80;99.90
3994;DHT22;2011;48.238;13.948;2023-08-17T01:25:05;20.80;99.90
3994;DHT22;2011;48.238;13.948;2023-08-17T01:27:39;20.80;99.90
3994;DHT22;2011;48.238;13.948;2023-08-17T01:30:07;20.80;99.90
3994;DHT22;2011;48.238;13.948;2023-08-17T01:32:39;20.80;99.90
3994;DHT22;2011;48.238;13.948;2023-08-17T01:35:14;20.80;99.90
3994;DHT22;2011;48.238;13.948;2023-08-17T01:37:43;20.70;99.90
3994;DHT22;2011;48.238;13.948;2023-08-17T01:40:12;20.70;99.90
3994;DHT22;2011;48.238;13.948;2023-08-17T01:42:41;20.70;99.90
3994;DHT22;2011;48.238;13.948;2023-08-17T01:45:10;20.70;99.90
3994;DHT22;2011;48.238;13.948;2023-08-17T01:47:37;20.70;99.90
3994;DHT22;2011;48.238;13.948;2023-08-17T01:50:05;20.70;99.90
3994;DHT22;2011;48.238;13.948;2023-08-17T01:52:32;20.70;99.90
3994;DHT22;2011;48.238;13.948;2023-08-17T01:54:59;20.60;99.90
3994;DHT22;2011;48.238;13.948;2023-08-17T01:57:28;20.60;99.90
3994;DHT22;2011;48.238;13.948;2023-08-17T01:59:55;20.50;99.90
3994;DHT22;2011;48.238;13.948;2023-08-17T02:02:22;20.50;99.90
3994;DHT22;2011;48.238;13.948;2023-08-17T02:04:49;20.60;99.90
3994;DHT22;2011;48.238;13.948;2023-08-17T02:07:16;20.60;99.90
3994;DHT22;2011;48.238;13.948;2023-08-17T02:09:43;20.60;99.90
3994;DHT22;2011;48.238;13.948;2023-08-17T02:12:10;20.60;99.90
3994;DHT22;2011;48.238;13.948;2023-08-17T02:14:38;20.60;99.90
3994;DHT22;2011;48.238;13.948;2023-08-17T02:17:05;20.70;99.90
3994;DHT22;2011;48.238;13.948;2023-08-17T02:19:32;20.70;99.90
3994;DHT22;2011;48.238;13.948;2023-08-17T02:21:59;20.70;99.90
3994;DHT22;2011;48.238;13.948;2023-08-17T02:24:26;20.70;99.90
3994;DHT22;2011;48.238;13.948;2023-08-17T02:26:53;20.60;99.90
3994;DHT22;2011;48.238;13.948;2023-08-17T02:29:20;20.60;99.90
3994;DHT22;2011;48.238;13.948;2023-08-17T02:31:49;20.50;99.90
3994;DHT22;2011;48.238;13.948;2023-08-17T02:34:16;20.50;99.90
3994;DHT22;2011;48.238;13.948;2023-08-17T02:36:43;20.50;99.90
3994;DHT22;2011;48.238;13.948;2023-08-17T02:39:10;20.50;99.90
3994;DHT22;2011;48.238;13.948;2023-08-17T02:41:37;20.50;99.90
3994;DHT22;2011;48.238;13.948;2023-08-17T02:44:05;20.50;99.90
3994;DHT22;2011;48.238;13.948;2023-08-17T02:46:31;20.50;99.90
3994;DHT22;2011;48.238;13.948;2023-08-17T02:49:00;20.40;99.90
3994;DHT22;2011;48.238;13.948;2023-08-17T02:51:27;20.30;99.90
3994;DHT22;2011;48.238;13.948;2023-08-17T02:53:54;20.30;99.90
3994;DHT22;2011;48.238;13.948;2023-08-17T02:56:21;20.30;99.90
3994;DHT22;2011;48.238;13.948;2023-08-17T02:58:48;20.30;99.90
3994;DHT22;2011;48.238;13.948;2023-08-17T03:01:15;20.40;99.90
3994;DHT22;2011;48.238;13.948;2023-08-17T03:03:42;20.30;99.90
3994;DHT22;2011;48.238;13.948;2023-08-17T03:06:10;20.30;99.90
3994;DHT22;2011;48.238;13.948;2023-08-17T03:08:37;20.20;99.90
3994;DHT22;2011;48.238;13.948;2023-08-17T03:11:04;20.20;99.90
3994;DHT22;2011;48.238;13.948;2023-08-17T03:13:33;20.20;99.90
3994;DHT22;2011;48.238;13.948;2023-08-17T03:16:00;20.20;99.90
3994;DHT22;2011;48.238;13.948;2023-08-17T03:18:27;20.20;99.90
3994;DHT22;2011;48.238;13.948;2023-08-17T03:20:54;20.20;99.90
3994;DHT22;2011;48.238;13.948;2023-08-17T03:23:22;20.20;99.90
3994;DHT22;2011;48.238;13.948;2023-08-17T03:25:51;20.10;99.90
3994;DHT22;2011;48.238;13.948;2023-08-17T03:28:18;20.10;99.90
3994;DHT22;2011;48.238;13.948;2023-08-17T03:30:45;20.00;99.90
3994;DHT22;2011;48.238;13.948;2023-08-17T03:33:12;20.00;99.90
3994;DHT22;2011;48.238;13.948;2023-08-17T03:35:39;20.00;99.90
3994;DHT22;2011;48.238;13.948;2023-08-17T03:38:06;20.00;99.90
3994;DHT22;2011;48.238;13.948;2023-08-17T03:40:35;20.00;99.90
3994;DHT22;2011;48.238;13.948;2023-08-17T03:43:02;20.00;99.90
3994;DHT22;2011;48.238;13.948;2023-08-17T03:45:29;19.90;99.90
3994;DHT22;2011;48.238;13.948;2023-08-17T03:47:56;19.90;99.90
3994;DHT22;2011;48.238;13.948;2023-08-17T03:50:26;19.90;99.90
3994;DHT22;2011;48.238;13.948;2023-08-17T03:52:52;19.90;99.90
3994;DHT22;2011;48.238;13.948;2023-08-17T03:55:20;19.90;99.90
3994;DHT22;2011;48.238;13.948;2023-08-17T03:57:48;20.00;99.90
3994;DHT22;2011;48.238;13.948;2023-08-17T04:00:15;19.90;99.90
3994;DHT22;2011;48.238;13.948;2023-08-17T04:02:42;19.90;99.90
3994;DHT22;2011;48.238;13.948;2023-08-17T04:05:09;19.90;99.90
3994;DHT22;2011;48.238;13.948;2023-08-17T04:07:37;19.90;99.90
3994;DHT22;2011;48.238;13.948;2023-08-17T04:10:06;19.90;99.90
3994;DHT22;2011;48.238;13.948;2023-08-17T04:12:33;19.90;99.90
3994;DHT22;2011;48.238;13.948;2023-08-17T04:15:01;19.90;99.90
3994;DHT22;2011;48.238;13.948;2023-08-17T04:17:28;19.90;99.90
3994;DHT22;2011;48.238;13.948;2023-08-17T04:19:55;19.90;99.90
3994;DHT22;2011;48.238;13.948;2023-08-17T04:22:22;20.00;99.90
3994;DHT22;2011;48.238;13.948;2023-08-17T04:24:49;20.00;99.90
3994;DHT22;2011;48.238;13.948;2023-08-17T04:27:16;20.00;99.90
3994;DHT22;2011;48.238;13.948;2023-08-17T04:29:44;20.10;99.90
3994;DHT22;2011;48.238;13.948;2023-08-17T04:32:15;20.10;99.90
3994;DHT22;2011;48.238;13.948;2023-08-17T04:34:42;20.10;99.90
3994;DHT22;2011;48.238;13.948;2023-08-17T04:37:09;20.10;99.90
3994;DHT22;2011;48.238;13.948;2023-08-17T04:39:36;20.10;99.90
3994;DHT22;2011;48.238;13.948;2023-08-17T04:42:03;20.10;99.90
3994;DHT22;2011;48.238;13.948;2023-08-17T04:44:30;20.10;99.90
3994;DHT22;2011;48.238;13.948;2023-08-17T04:46:58;20.10;99.90
3994;DHT22;2011;48.238;13.948;2023-08-17T04:49:26;20.10;99.90
3994;DHT22;2011;48.238;13.948;2023-08-17T04:51:53;20.20;99.90
3994;DHT22;2011;48.238;13.948;2023-08-17T04:54:20;20.20;99.90
3994;DHT22;2011;48.238;13.948;2023-08-17T04:56:47;20.20;99.90
3994;DHT22;2011;48.238;13.948;2023-08-17T04:59:15;20.20;99.90
3994;DHT22;2011;48.238;13.948;2023-08-17T05:01:42;20.30;99.90
3994;DHT22;2011;48.238;13.948;2023-08-17T05:04:09;20.30;99.90
3994;DHT22;2011;48.238;13.948;2023-08-17T05:06:37;20.30;99.90
3994;DHT22;2011;48.238;13.948;2023-08-17T05:09:05;20.40;99.90
3994;DHT22;2011;48.238;13.948;2023-08-17T05:11:32;20.40;99.90
3994;DHT22;2011;48.238;13.948;2023-08-17T05:13:59;20.40;99.90
3994;DHT22;2011;48.238;13.948;2023-08-17T05:16:26;20.50;99.90
3994;DHT22;2011;48.238;13.948;2023-08-17T05:18:53;20.50;99.90
3994;DHT22;2011;48.238;13.948;2023-08-17T05:21:20;20.60;99.90
3994;DHT22;2011;48.238;13.948;2023-08-17T05:23:48;20.60;99.90
3994;DHT22;2011;48.238;13.948;2023-08-17T05:26:15;20.70;99.90
3994;DHT22;2011;48.238;13.948;2023-08-17T05:28:42;20.80;99.90
3994;DHT22;2011;48.238;13.948;2023-08-17T05:31:10;20.80;99.90
3994;DHT22;2011;48.238;13.948;2023-08-17T05:33:37;20.90;99.90
3994;DHT22;2011;48.238;13.948;2023-08-17T05:36:06;20.90;99.90
3994;DHT22;2011;48.238;13.948;2023-08-17T05:38:33;20.90;99.90
3994;DHT22;2011;48.238;13.948;2023-08-17T05:41:02;21.00;99.90
3994;DHT22;2011;48.238;13.948;2023-08-17T05:43:28;21.10;99.90
3994;DHT22;2011;48.238;13.948;2023-08-17T05:45:57;21.20;99.90
3994;DHT22;2011;48.238;13.948;2023-08-17T05:48:25;21.30;99.90
3994;DHT22;2011;48.238;13.948;2023-08-17T05:50:52;21.30;99.90
3994;DHT22;2011;48.238;13.948;2023-08-17T05:53:19;21.40;99.90
3994;DHT22;2011;48.238;13.948;2023-08-17T05:55:46;21.40;99.90
3994;DHT22;2011;48.238;13.948;2023-08-17T05:58:14;21.60;99.90
3994;DHT22;2011;48.238;13.948;2023-08-17T06:00:41;21.60;99.90
3994;DHT22;2011;48.238;13.948;2023-08-17T06:03:08;21.70;99.90
3994;DHT22;2011;48.238;13.948;2023-08-17T06:05:36;21.80;99.90
3994;DHT22;2011;48.238;13.948;2023-08-17T06:08:04;21.90;99.90
3994;DHT22;2011;48.238;13.948;2023-08-17T06:10:31;22.00;99.90
3994;DHT22;2011;48.238;13.948;2023-08-17T06:12:58;22.10;99.90
3994;DHT22;2011;48.238;13.948;2023-08-17T06:15:26;22.10;99.90
3994;DHT22;2011;48.238;13.948;2023-08-17T06:17:53;22.20;99.90
3994;DHT22;2011;48.238;13.948;2023-08-17T06:20:20;22.30;99.90
3994;DHT22;2011;48.238;13.948;2023-08-17T06:22:47;22.30;99.90
3994;DHT22;2011;48.238;13.948;2023-08-17T06:25:15;22.40;99.90
3994;DHT22;2011;48.238;13.948;2023-08-17T06:27:42;22.50;99.90
3994;DHT22;2011;48.238;13.948;2023-08-17T06:30:11;22.50;99.90
3994;DHT22;2011;48.238;13.948;2023-08-17T06:32:40;22.60;99.90
3994;DHT22;2011;48.238;13.948;2023-08-17T06:35:07;22.70;99.90
3994;DHT22;2011;48.238;13.948;2023-08-17T06:37:34;22.70;99.90
3994;DHT22;2011;48.238;13.948;2023-08-17T06:40:02;22.80;99.90
3994;DHT22;2011;48.238;13.948;2023-08-17T06:42:31;22.90;99.90
3994;DHT22;2011;48.238;13.948;2023-08-17T06:44:58;23.00;99.90
3994;DHT22;2011;48.238;13.948;2023-08-17T06:47:25;23.10;99.90
3994;DHT22;2011;48.238;13.948;2023-08-17T06:49:54;23.10;99.90
3994;DHT22;2011;48.238;13.948;2023-08-17T06:52:23;23.20;99.90
3994;DHT22;2011;48.238;13.948;2023-08-17T06:54:50;23.20;99.90
3994;DHT22;2011;48.238;13.948;2023-08-17T06:57:17;23.30;99.90
3994;DHT22;2011;48.238;13.948;2023-08-17T06:59:44;23.40;99.90
3994;DHT22;2011;48.238;13.948;2023-08-17T07:02:12;23.40;99.90
3994;DHT22;2011;48.238;13.948;2023-08-17T07:04:39;23.50;99.90
3994;DHT22;2011;48.238;13.948;2023-08-17T07:07:07;23.60;99.90
3994;DHT22;2011;48.238;13.948;2023-08-17T07:09:34;23.60;99.90
3994;DHT22;2011;48.238;13.948;2023-08-17T07:12:01;23.70;99.90
3994;DHT22;2011;48.238;13.948;2023-08-17T07:14:28;23.80;99.90
3994;DHT22;2011;48.238;13.948;2023-08-17T07:16:56;23.90;99.90
3994;DHT22;2011;48.238;13.948;2023-08-17T07:19:23;23.90;99.90
3994;DHT22;2011;48.238;13.948;2023-08-17T07:21:50;24.00;99.90
3994;DHT22;2011;48.238;13.948;2023-08-17T07:24:18;24.00;99.90
3994;DHT22;2011;48.238;13.948;2023-08-17T07:26:45;24.10;99.90
3994;DHT22;2011;48.238;13.948;2023-08-17T07:29:12;24.10;99.90
3994;DHT22;2011;48.238;13.948;2023-08-17T07:31:39;24.20;99.90
3994;DHT22;2011;48.238;13.948;2023-08-17T07:34:06;24.20;99.90
3994;DHT22;2011;48.238;13.948;2023-08-17T07:36:33;24.30;99.90
3994;DHT22;2011;48.238;13.948;2023-08-17T07:39:00;24.30;99.90
3994;DHT22;2011;48.238;13.948;2023-08-17T07:41:29;24.40;99.90
3994;DHT22;2011;48.238;13.948;2023-08-17T07:43:56;24.50;99.90
3994;DHT22;2011;48.238;13.948;2023-08-17T07:46:23;24.50;99.90
3994;DHT22;2011;48.238;13.948;2023-08-17T07:48:50;24.60;99.90
3994;DHT22;2011;48.238;13.948;2023-08-17T07:51:17;24.70;99.90
3994;DHT22;2011;48.238;13.948;2023-08-17T07:53:44;24.80;99.90
3994;DHT22;2011;48.238;13.948;2023-08-17T07:56:11;24.80;99.90
3994;DHT22;2011;48.238;13.948;2023-08-17T07:58:39;24.80;99.90
3994;DHT22;2011;48.238;13.948;2023-08-17T08:01:06;24.90;99.90
3994;DHT22;2011;48.238;13.948;2023-08-17T08:03:33;24.90;99.90
3994;DHT22;2011;48.238;13.948;2023-08-17T08:06:00;25.00;99.90
3994;DHT22;2011;48.238;13.948;2023-08-17T08:08:27;25.10;99.90
3994;DHT22;2011;48.238;13.948;2023-08-17T08:10:54;25.20;99.90
3994;DHT22;2011;48.238;13.948;2023-08-17T08:13:21;25.20;99.90
3994;DHT22;2011;48.238;13.948;2023-08-17T08:15:50;25.30;99.90
3994;DHT22;2011;48.238;13.948;2023-08-17T08:18:17;25.40;99.90
3994;DHT22;2011;48.238;13.948;2023-08-17T08:20:44;25.40;99.90
3994;DHT22;2011;48.238;13.948;2023-08-17T08:23:11;25.40;99.90
3994;DHT22;2011;48.238;13.948;2023-08-17T08:25:38;25.50;99.90
3994;DHT22;2011;48.238;13.948;2023-08-17T08:28:05;25.60;99.90
3994;DHT22;2011;48.238;13.948;2023-08-17T08:30:34;25.70;99.90
3994;DHT22;2011;48.238;13.948;2023-08-17T08:33:03;25.80;99.90
3994;DHT22;2011;48.238;13.948;2023-08-17T08:35:30;25.90;99.90
3994;DHT22;2011;48.238;13.948;2023-08-17T08:37:58;25.90;99.90
3994;DHT22;2011;48.238;13.948;2023-08-17T08:40:28;26.00;99.90
3994;DHT22;2011;48.238;13.948;2023-08-17T08:42:55;26.10;99.90
3994;DHT22;2011;48.238;13.948;2023-08-17T08:45:23;26.10;99.90
3994;DHT22;2011;48.238;13.948;2023-08-17T08:47:52;26.10;99.90
3994;DHT22;2011;48.238;13.948;2023-08-17T08:50:21;26.10;99.90
3994;DHT22;2011;48.238;13.948;2023-08-17T08:52:53;26.20;99.90
3994;DHT22;2011;48.238;13.948;2023-08-17T08:55:23;26.20;99.90
3994;DHT22;2011;48.238;13.948;2023-08-17T08:57:53;26.40;99.90
3994;DHT22;2011;48.238;13.948;2023-08-17T09:00:22;26.40;99.90
3994;DHT22;2011;48.238;13.948;2023-08-17T09:02:49;26.60;99.90
3994;DHT22;2011;48.238;13.948;2023-08-17T09:05:17;26.70;99.90
3994;DHT22;2011;48.238;13.948;2023-08-17T09:07:47;26.70;99.90
3994;DHT22;2011;48.238;13.948;2023-08-17T09:10:15;26.80;99.90
3994;DHT22;2011;48.238;13.948;2023-08-17T09:12:45;26.80;99.90
3994;DHT22;2011;48.238;13.948;2023-08-17T09:15:12;26.90;99.90
3994;DHT22;2011;48.238;13.948;2023-08-17T09:17:39;27.00;99.90
3994;DHT22;2011;48.238;13.948;2023-08-17T09:20:08;27.00;99.90
3994;DHT22;2011;48.238;13.948;2023-08-17T09:22:37;27.10;99.90
3994;DHT22;2011;48.238;13.948;2023-08-17T09:25:08;27.20;99.90
3994;DHT22;2011;48.238;13.948;2023-08-17T09:27:36;27.20;99.90
3994;DHT22;2011;48.238;13.948;2023-08-17T09:30:04;27.30;99.90
3994;DHT22;2011;48.238;13.948;2023-08-17T09:32:31;27.30;99.90
3994;DHT22;2011;48.238;13.948;2023-08-17T09:35:01;27.30;99.90
3994;DHT22;2011;48.238;13.948;2023-08-17T09:37:29;27.30;99.90
3994;DHT22;2011;48.238;13.948;2023-08-17T09:39:56;27.50;99.90
3994;DHT22;2011;48.238;13.948;2023-08-17T09:42:24;27.60;99.90
3994;DHT22;2011;48.238;13.948;2023-08-17T09:44:53;27.60;99.90
3994;DHT22;2011;48.238;13.948;2023-08-17T09:47:22;27.70;99.90
3994;DHT22;2011;48.238;13.948;2023-08-17T09:49:49;27.80;99.90
3994;DHT22;2011;48.238;13.948;2023-08-17T09:52:18;27.80;99.90
3994;DHT22;2011;48.238;13.948;2023-08-17T09:54:45;27.90;99.90
3994;DHT22;2011;48.238;13.948;2023-08-17T09:57:13;28.00;99.90
3994;DHT22;2011;48.238;13.948;2023-08-17T09:59:42;28.00;99.90
3994;DHT22;2011;48.238;13.948;2023-08-17T10:02:22;28.10;99.90
3994;DHT22;2011;48.238;13.948;2023-08-17T10:04:52;28.10;99.90
3994;DHT22;2011;48.238;13.948;2023-08-17T10:07:20;28.20;99.90
3994;DHT22;2011;48.238;13.948;2023-08-17T10:09:54;28.20;99.90
3994;DHT22;2011;48.238;13.948;2023-08-17T10:12:27;28.30;99.90
3994;DHT22;2011;48.238;13.948;2023-08-17T10:15:05;28.30;99.90
3994;DHT22;2011;48.238;13.948;2023-08-17T10:17:39;28.40;99.90
3994;DHT22;2011;48.238;13.948;2023-08-17T10:20:09;28.50;99.90
3994;DHT22;2011;48.238;13.948;2023-08-17T10:22:41;28.60;99.90
3994;DHT22;2011;48.238;13.948;2023-08-17T10:25:12;28.60;99.90
3994;DHT22;2011;48.238;13.948;2023-08-17T10:27:40;28.60;99.90
3994;DHT22;2011;48.238;13.948;2023-08-17T10:30:10;28.70;99.90
3994;DHT22;2011;48.238;13.948;2023-08-17T10:32:38;28.80;99.30
3994;DHT22;2011;48.238;13.948;2023-08-17T10:35:07;28.70;98.90
3994;DHT22;2011;48.238;13.948;2023-08-17T10:37:35;28.80;99.00
3994;DHT22;2011;48.238;13.948;2023-08-17T10:40:02;28.90;99.30
3994;DHT22;2011;48.238;13.948;2023-08-17T10:42:30;29.00;98.30
3994;DHT22;2011;48.238;13.948;2023-08-17T10:44:59;29.10;98.20
3994;DHT22;2011;48.238;13.948;2023-08-17T10:47:31;29.10;97.70
3994;DHT22;2011;48.238;13.948;2023-08-17T10:49:59;29.30;97.60
3994;DHT22;2011;48.238;13.948;2023-08-17T10:52:30;29.30;97.70
3994;DHT22;2011;48.238;13.948;2023-08-17T10:55:00;29.30;98.10
3994;DHT22;2011;48.238;13.948;2023-08-17T10:57:34;29.40;98.50
3994;DHT22;2011;48.238;13.948;2023-08-17T11:00:25;29.50;97.40
3994;DHT22;2011;48.238;13.948;2023-08-17T11:02:55;29.60;97.70
3994;DHT22;2011;48.238;13.948;2023-08-17T11:05:37;29.70;98.80
3994;DHT22;2011;48.238;13.948;2023-08-17T11:08:05;29.70;97.10
3994;DHT22;2011;48.238;13.948;2023-08-17T11:10:32;29.80;96.80
3994;DHT22;2011;48.238;13.948;2023-08-17T11:13:00;29.80;97.10
3994;DHT22;2011;48.238;13.948;2023-08-17T11:15:36;29.80;96.50
3994;DHT22;2011;48.238;13.948;2023-08-17T11:18:10;29.80;96.10
3994;DHT22;2011;48.238;13.948;2023-08-17T11:20:39;29.80;95.90
3994;DHT22;2011;48.238;13.948;2023-08-17T11:23:06;29.90;96.50
3994;DHT22;2011;48.238;13.948;2023-08-17T11:25:33;30.00;96.40
3994;DHT22;2011;48.238;13.948;2023-08-17T11:28:01;30.10;96.70
3994;DHT22;2011;48.238;13.948;2023-08-17T11:30:29;30.10;96.30
3994;DHT22;2011;48.238;13.948;2023-08-17T11:32:56;30.20;96.10
3994;DHT22;2011;48.238;13.948;2023-08-17T11:35:25;30.30;96.20
3994;DHT22;2011;48.238;13.948;2023-08-17T11:37:52;30.30;95.60
3994;DHT22;2011;48.238;13.948;2023-08-17T11:40:19;30.40;95.10
3994;DHT22;2011;48.238;13.948;2023-08-17T11:42:46;30.40;94.50
3994;DHT22;2011;48.238;13.948;2023-08-17T11:45:15;30.50;94.70
3994;DHT22;2011;48.238;13.948;2023-08-17T11:47:42;30.50;95.00
3994;DHT22;2011;48.238;13.948;2023-08-17T11:50:11;30.60;95.20
3994;DHT22;2011;48.238;13.948;2023-08-17T11:52:40;30.60;94.90
3994;DHT22;2011;48.238;13.948;2023-08-17T11:55:08;30.70;94.70
3994;DHT22;2011;48.238;13.948;2023-08-17T11:57:36;30.70;93.50
3994;DHT22;2011;48.238;13.948;2023-08-17T12:00:05;30.70;94.20
3994;DHT22;2011;48.238;13.948;2023-08-17T12:02:32;30.90;93.40
3994;DHT22;2011;48.238;13.948;2023-08-17T12:05:04;31.00;92.50
3994;DHT22;2011;48.238;13.948;2023-08-17T12:07:32;31.00;91.50
3994;DHT22;2011;48.238;13.948;2023-08-17T12:10:02;31.00;92.00
3994;DHT22;2011;48.238;13.948;2023-08-17T12:12:30;31.00;92.50
3994;DHT22;2011;48.238;13.948;2023-08-17T12:14:57;31.10;92.80
3994;DHT22;2011;48.238;13.948;2023-08-17T12:17:24;31.20;91.80
3994;DHT22;2011;48.238;13.948;2023-08-17T12:19:54;31.30;92.20
3994;DHT22;2011;48.238;13.948;2023-08-17T12:22:24;31.30;90.90
3994;DHT22;2011;48.238;13.948;2023-08-17T12:24:51;31.20;89.70
3994;DHT22;2011;48.238;13.948;2023-08-17T12:27:21;31.00;90.90
3994;DHT22;2011;48.238;13.948;2023-08-17T12:29:49;31.20;90.80
3994;DHT22;2011;48.238;13.948;2023-08-17T12:32:18;31.30;91.40
3994;DHT22;2011;48.238;13.948;2023-08-17T12:34:45;31.50;90.60
3994;DHT22;2011;48.238;13.948;2023-08-17T12:37:18;31.60;91.10
3994;DHT22;2011;48.238;13.948;2023-08-17T12:39:46;31.70;91.20
3994;DHT22;2011;48.238;13.948;2023-08-17T12:42:13;31.70;91.00
3994;DHT22;2011;48.238;13.948;2023-08-17T12:44:42;31.80;90.80
3994;DHT22;2011;48.238;13.948;2023-08-17T12:47:10;31.80;90.10
3994;DHT22;2011;48.238;13.948;2023-08-17T12:49:37;31.90;88.70
3994;DHT22;2011;48.238;13.948;2023-08-17T12:52:04;31.90;88.90
3994;DHT22;2011;48.238;13.948;2023-08-17T12:54:31;32.00;89.90
3994;DHT22;2011;48.238;13.948;2023-08-17T12:56:58;32.10;86.90
3994;DHT22;2011;48.238;13.948;2023-08-17T12:59:25;32.20;87.30
3994;DHT22;2011;48.238;13.948;2023-08-17T13:01:53;32.30;86.70
3994;DHT22;2011;48.238;13.948;2023-08-17T13:04:20;32.30;84.80
3994;DHT22;2011;48.238;13.948;2023-08-17T13:06:47;32.30;84.10
3994;DHT22;2011;48.238;13.948;2023-08-17T13:09:16;32.40;83.80
3994;DHT22;2011;48.238;13.948;2023-08-17T13:11:44;32.40;84.50
3994;DHT22;2011;48.238;13.948;2023-08-17T13:14:11;32.50;84.10
3994;DHT22;2011;48.238;13.948;2023-08-17T13:16:38;32.50;84.20
3994;DHT22;2011;48.238;13.948;2023-08-17T13:19:07;32.60;82.90
3994;DHT22;2011;48.238;13.948;2023-08-17T13:21:34;32.70;82.50
3994;DHT22;2011;48.238;13.948;2023-08-17T13:24:01;32.80;82.50
3994;DHT22;2011;48.238;13.948;2023-08-17T13:26:29;32.90;81.80
3994;DHT22;2011;48.238;13.948;2023-08-17T13:28:56;33.00;83.70
3994;DHT22;2011;48.238;13.948;2023-08-17T13:31:23;33.10;83.20
3994;DHT22;2011;48.238;13.948;2023-08-17T13:33:50;33.10;83.30
3994;DHT22;2011;48.238;13.948;2023-08-17T13:36:19;33.10;80.50
3994;DHT22;2011;48.238;13.948;2023-08-17T13:38:46;33.10;79.90
3994;DHT22;2011;48.238;13.948;2023-08-17T13:41:13;33.20;80.30
3994;DHT22;2011;48.238;13.948;2023-08-17T13:43:40;33.20;79.70
3994;DHT22;2011;48.238;13.948;2023-08-17T13:46:07;33.30;80.00
3994;DHT22;2011;48.238;13.948;2023-08-17T13:48:34;33.40;80.30
3994;DHT22;2011;48.238;13.948;2023-08-17T13:51:01;33.40;78.90
3994;DHT22;2011;48.238;13.948;2023-08-17T13:53:30;33.40;78.00
3994;DHT22;2011;48.238;13.948;2023-08-17T13:55:57;33.50;77.50
3994;DHT22;2011;48.238;13.948;2023-08-17T13:58:24;33.60;77.90
3994;DHT22;2011;48.238;13.948;2023-08-17T14:00:51;33.60;78.90
3994;DHT22;2011;48.238;13.948;2023-08-17T14:03:18;33.70;78.40
3994;DHT22;2011;48.238;13.948;2023-08-17T14:05:45;33.70;78.00
3994;DHT22;2011;48.238;13.948;2023-08-17T14:08:12;33.80;76.80
3994;DHT22;2011;48.238;13.948;2023-08-17T14:10:40;33.80;75.30
3994;DHT22;2011;48.238;13.948;2023-08-17T14:13:07;33.80;73.90
3994;DHT22;2011;48.238;13.948;2023-08-17T14:15:34;33.90;75.10
3994;DHT22;2011;48.238;13.948;2023-08-17T14:18:01;34.00;73.40
3994;DHT22;2011;48.238;13.948;2023-08-17T14:20:29;34.00;74.10
3994;DHT22;2011;48.238;13.948;2023-08-17T14:22:56;33.90;74.10
3994;DHT22;2011;48.238;13.948;2023-08-17T14:25:23;33.90;73.20
3994;DHT22;2011;48.238;13.948;2023-08-17T14:27:52;33.90;74.50
3994;DHT22;2011;48.238;13.948;2023-08-17T14:30:19;34.10;73.60
3994;DHT22;2011;48.238;13.948;2023-08-17T14:32:46;34.10;72.20
3994;DHT22;2011;48.238;13.948;2023-08-17T14:35:13;34.10;71.40
3994;DHT22;2011;48.238;13.948;2023-08-17T14:37:40;34.10;71.10
3994;DHT22;2011;48.238;13.948;2023-08-17T14:40:09;34.10;71.70
3994;DHT22;2011;48.238;13.948;2023-08-17T14:42:37;34.10;70.80
3994;DHT22;2011;48.238;13.948;2023-08-17T14:45:07;34.20;69.70
3994;DHT22;2011;48.238;13.948;2023-08-17T14:47:34;34.20;70.10
3994;DHT22;2011;48.238;13.948;2023-08-17T14:50:01;34.20;69.60
3994;DHT22;2011;48.238;13.948;2023-08-17T14:52:28;34.30;68.10
3994;DHT22;2011;48.238;13.948;2023-08-17T14:54:56;34.20;69.30
3994;DHT22;2011;48.238;13.948;2023-08-17T14:57:23;34.30;68.60
3994;DHT22;2011;48.238;13.948;2023-08-17T14:59:50;34.30;67.10
3994;DHT22;2011;48.238;13.948;2023-08-17T15:02:18;34.40;67.30
3994;DHT22;2011;48.238;13.948;2023-08-17T15:04:46;34.40;68.40
3994;DHT22;2011;48.238;13.948;2023-08-17T15:07:13;34.40;69.30
3994;DHT22;2011;48.238;13.948;2023-08-17T15:09:40;34.50;68.40
3994;DHT22;2011;48.238;13.948;2023-08-17T15:12:07;34.40;67.40
3994;DHT22;2011;48.238;13.948;2023-08-17T15:14:34;34.40;65.80
3994;DHT22;2011;48.238;13.948;2023-08-17T15:17:01;34.40;68.30
3994;DHT22;2011;48.238;13.948;2023-08-17T15:19:30;34.50;67.90
3994;DHT22;2011;48.238;13.948;2023-08-17T15:21:57;34.50;68.60
3994;DHT22;2011;48.238;13.948;2023-08-17T15:24:24;34.50;66.80
3994;DHT22;2011;48.238;13.948;2023-08-17T15:26:51;34.60;66.60
3994;DHT22;2011;48.238;13.948;2023-08-17T15:29:18;34.50;66.30
3994;DHT22;2011;48.238;13.948;2023-08-17T15:31:45;34.50;67.30
3994;DHT22;2011;48.238;13.948;2023-08-17T15:34:12;34.60;67.80
3994;DHT22;2011;48.238;13.948;2023-08-17T15:36:40;34.60;68.20
3994;DHT22;2011;48.238;13.948;2023-08-17T15:39:07;34.60;68.40
3994;DHT22;2011;48.238;13.948;2023-08-17T15:41:34;34.60;68.60
3994;DHT22;2011;48.238;13.948;2023-08-17T15:44:01;34.60;69.20
3994;DHT22;2011;48.238;13.948;2023-08-17T15:46:28;34.70;68.60
3994;DHT22;2011;48.238;13.948;2023-08-17T15:48:56;34.70;67.50